sensor_id;sensor_type;location;lat;lon;timestamp;pressure;altitude;pressure_sealevel;temperature;humidity
17309;BME280;8772;42.804;23.426;2023-02-04T00:02:04;74642.66;;;-140.58;100.00
17309;BME280;8772;42.804;23.426;2023-02-04T00:04:31;74644.69;;;-140.58;100.00
17309;BME280;8772;42.804;23.426;2023-02-04T00:06:58;74644.69;;;-140.58;100.00
17309;BME280;8772;42.804;23.426;2023-02-04T00:09:25;74634.44;;;-140.58;100.00
17309;BME280;8772;42.804;23.426;2023-02-04T00:11:53;74634.44;;;-140.58;100.00
17309;BME280;8772;42.804;23.426;2023-02-04T00:14:20;74618.03;;;-140.58;100.00
17309;BME280;8772;42.804;23.426;2023-02-04T00:16:47;74613.91;;;-140.58;100.00
17309;BME280;8772;42.804;23.426;2023-02-04T00:19:13;74609.81;;;-140.58;100.00
17309;BME280;8772;42.804;23.426;2023-02-04T00:21:41;74597.50;;;-140.58;100.00
17309;BME280;8772;42.804;23.426;2023-02-04T00:24:08;74609.81;;;-140.58;100.00
17309;BME280;8772;42.804;23.426;2023-02-04T00:26:35;74597.50;;;-140.58;100.00
17309;BME280;8772;42.804;23.426;2023-02-04T00:29:04;74607.75;;;-140.58;100.00
17309;BME280;8772;42.804;23.426;2023-02-04T00:31:30;74589.28;;;-140.58;100.00
17309;BME280;8772;42.804;23.426;2023-02-04T00:33:57;74593.41;;;-140.58;100.00
17309;BME280;8772;42.804;23.426;2023-02-04T00:36:25;74583.13;;;-140.58;100.00
17309;BME280;8772;42.804;23.426;2023-02-04T00:38:52;74581.09;;;-140.58;100.00
17309;BME280;8772;42.804;23.426;2023-02-04T00:41:19;74560.56;;;-140.58;100.00
17309;BME280;8772;42.804;23.426;2023-02-04T00:43:45;74556.47;;;-140.58;100.00
17309;BME280;8772;42.804;23.426;2023-02-04T00:46:14;74544.16;;;-140.58;100.00
17309;BME280;8772;42.804;23.426;2023-02-04T00:48:40;74558.53;;;-140.58;100.00
17309;BME280;8772;42.804;23.426;2023-02-04T00:51:07;74568.78;;;-140.58;100.00
17309;BME280;8772;42.804;23.426;2023-02-04T00:53:34;74566.72;;;-140.58;100.00
17309;BME280;8772;42.804;23.426;2023-02-04T00:56:01;74581.09;;;-140.58;100.00
17309;BME280;8772;42.804;23.426;2023-02-04T00:58:28;74562.63;;;-140.58;100.00
17309;BME280;8772;42.804;23.426;2023-02-04T01:00:55;74554.41;;;-140.58;98.98
17309;BME280;8772;42.804;23.426;2023-02-04T01:06:41;74548.25;;;-140.58;98.78
17309;BME280;8772;42.804;23.426;2023-02-04T01:09:08;74540.06;;;-140.58;97.82
17309;BME280;8772;42.804;23.426;2023-02-04T01:11:35;74548.25;;;-140.58;94.29
17309;BME280;8772;42.804;23.426;2023-02-04T01:14:02;74535.94;;;-140.58;95.06
17309;BME280;8772;42.804;23.426;2023-02-04T01:16:28;74540.06;;;-140.58;94.61
17309;BME280;8772;42.804;23.426;2023-02-04T01:18:55;74523.63;;;-140.58;94.72
17309;BME280;8772;42.804;23.426;2023-02-04T01:21:23;74521.59;;;-140.58;94.81
17309;BME280;8772;42.804;23.426;2023-02-04T01:23:52;74503.13;;;-140.58;94.16
17309;BME280;8772;42.804;23.426;2023-02-04T01:26:19;74496.97;;;-140.58;93.35
17309;BME280;8772;42.804;23.426;2023-02-04T01:28:46;74482.59;;;-140.58;93.57
17309;BME280;8772;42.804;23.426;2023-02-04T01:31:13;74482.59;;;-140.58;93.20
17309;BME280;8772;42.804;23.426;2023-02-04T01:33:40;74478.50;;;-140.58;93.62
17309;BME280;8772;42.804;23.426;2023-02-04T01:36:08;74474.38;;;-140.58;94.42
17309;BME280;8772;42.804;23.426;2023-02-04T01:38:35;74480.53;;;-140.58;94.80
17309;BME280;8772;42.804;23.426;2023-02-04T01:41:04;74466.19;;;-140.58;94.61
17309;BME280;8772;42.804;23.426;2023-02-04T01:43:32;74472.34;;;-140.58;94.36
17309;BME280;8772;42.804;23.426;2023-02-04T01:45:59;74490.81;;;-140.58;94.85
17309;BME280;8772;42.804;23.426;2023-02-04T01:48:27;74484.66;;;-140.58;95.39
17309;BME280;8772;42.804;23.426;2023-02-04T01:51:00;74490.81;;;-140.58;94.15
17309;BME280;8772;42.804;23.426;2023-02-04T01:53:28;74466.19;;;-140.58;93.26
17309;BME280;8772;42.804;23.426;2023-02-04T01:55:56;74466.19;;;-140.58;93.28
17309;BME280;8772;42.804;23.426;2023-02-04T01:58:24;74453.88;;;-140.58;91.61
17309;BME280;8772;42.804;23.426;2023-02-04T02:00:51;74453.88;;;-140.58;91.27
17309;BME280;8772;42.804;23.426;2023-02-04T02:03:18;74453.88;;;-140.58;92.19
17309;BME280;8772;42.804;23.426;2023-02-04T02:05:47;74451.81;;;-140.58;91.57
17309;BME280;8772;42.804;23.426;2023-02-04T02:08:15;74455.94;;;-140.58;92.23
17309;BME280;8772;42.804;23.426;2023-02-04T02:10:44;74441.56;;;-140.58;90.30
17309;BME280;8772;42.804;23.426;2023-02-04T02:13:14;74445.66;;;-140.58;90.97
17309;BME280;8772;42.804;23.426;2023-02-04T02:15:42;74433.34;;;-140.58;90.76
17309;BME280;8772;42.804;23.426;2023-02-04T02:18:10;74441.56;;;-140.58;90.56
17309;BME280;8772;42.804;23.426;2023-02-04T02:20:38;74429.25;;;-140.58;89.74
17309;BME280;8772;42.804;23.426;2023-02-04T02:23:13;74421.03;;;-140.58;90.28
17309;BME280;8772;42.804;23.426;2023-02-04T02:25:44;74400.53;;;-140.58;89.00
17309;BME280;8772;42.804;23.426;2023-02-04T02:28:12;74390.25;;;-140.58;88.71
17309;BME280;8772;42.804;23.426;2023-02-04T02:30:40;74386.16;;;-140.58;89.75
17309;BME280;8772;42.804;23.426;2023-02-04T02:33:10;74388.22;;;-140.58;88.26
17309;BME280;8772;42.804;23.426;2023-02-04T02:35:39;74380.00;;;-140.58;89.21
17309;BME280;8772;42.804;23.426;2023-02-04T02:38:08;74371.81;;;-140.58;89.00
17309;BME280;8772;42.804;23.426;2023-02-04T02:40:35;74382.06;;;-140.58;90.66
17309;BME280;8772;42.804;23.426;2023-02-04T02:43:04;74369.75;;;-140.58;89.00
17309;BME280;8772;42.804;23.426;2023-02-04T02:45:32;74363.59;;;-140.58;90.14
17309;BME280;8772;42.804;23.426;2023-02-04T02:48:00;74355.38;;;-140.58;89.21
17309;BME280;8772;42.804;23.426;2023-02-04T02:50:29;74363.59;;;-140.58;89.14
17309;BME280;8772;42.804;23.426;2023-02-04T02:52:57;74359.50;;;-140.58;89.02
17309;BME280;8772;42.804;23.426;2023-02-04T02:55:26;74359.50;;;-140.58;89.98
17309;BME280;8772;42.804;23.426;2023-02-04T02:57:55;74351.28;;;-140.58;90.41
17309;BME280;8772;42.804;23.426;2023-02-04T03:00:25;74351.28;;;-140.58;90.38
17309;BME280;8772;42.804;23.426;2023-02-04T03:02:56;74351.28;;;-140.58;91.90
17309;BME280;8772;42.804;23.426;2023-02-04T03:05:26;74338.97;;;-140.58;91.65
17309;BME280;8772;42.804;23.426;2023-02-04T03:07:53;74351.28;;;-140.58;93.01
17309;BME280;8772;42.804;23.426;2023-02-04T03:10:20;74343.06;;;-140.58;93.51
17309;BME280;8772;42.804;23.426;2023-02-04T03:12:47;74322.56;;;-140.58;92.05
17309;BME280;8772;42.804;23.426;2023-02-04T03:15:15;74318.44;;;-140.58;92.64
17309;BME280;8772;42.804;23.426;2023-02-04T03:17:43;74304.09;;;-140.58;92.67
17309;BME280;8772;42.804;23.426;2023-02-04T03:20:12;74295.88;;;-140.58;92.33
17309;BME280;8772;42.804;23.426;2023-02-04T03:22:40;74293.84;;;-140.58;91.98
17309;BME280;8772;42.804;23.426;2023-02-04T03:25:07;74289.72;;;-140.58;91.85
17309;BME280;8772;42.804;23.426;2023-02-04T03:27:34;74304.09;;;-140.58;93.07
17309;BME280;8772;42.804;23.426;2023-02-04T03:30:01;74304.09;;;-140.58;92.88
17309;BME280;8772;42.804;23.426;2023-02-04T03:32:28;74306.16;;;-140.58;93.76
17309;BME280;8772;42.804;23.426;2023-02-04T03:34:57;74297.94;;;-140.58;94.08
17309;BME280;8772;42.804;23.426;2023-02-04T03:37:23;74300.00;;;-140.58;95.01
17309;BME280;8772;42.804;23.426;2023-02-04T03:39:50;74302.03;;;-140.58;96.01
17309;BME280;8772;42.804;23.426;2023-02-04T03:42:17;74300.00;;;-140.58;97.00
17309;BME280;8772;42.804;23.426;2023-02-04T03:44:44;74277.41;;;-140.58;96.66
17309;BME280;8772;42.804;23.426;2023-02-04T03:47:11;74277.41;;;-140.58;97.24
17309;BME280;8772;42.804;23.426;2023-02-04T03:49:38;74281.53;;;-140.58;98.03
17309;BME280;8772;42.804;23.426;2023-02-04T03:52:06;74281.53;;;-140.58;98.62
17309;BME280;8772;42.804;23.426;2023-02-04T03:54:33;74275.38;;;-140.58;99.53
17309;BME280;8772;42.804;23.426;2023-02-04T03:57:00;74275.38;;;-140.58;100.00
17309;BME280;8772;42.804;23.426;2023-02-04T03:59:27;74258.94;;;-140.58;98.92
17309;BME280;8772;42.804;23.426;2023-02-04T04:01:53;74248.69;;;-140.58;98.47
17309;BME280;8772;42.804;23.426;2023-02-04T04:04:20;74248.69;;;-140.58;97.83
17309;BME280;8772;42.804;23.426;2023-02-04T04:06:47;74250.75;;;-140.58;97.86
17309;BME280;8772;42.804;23.426;2023-02-04T04:09:15;74254.84;;;-140.58;98.39
17309;BME280;8772;42.804;23.426;2023-02-04T04:11:42;74252.81;;;-140.58;99.87
17309;BME280;8772;42.804;23.426;2023-02-04T04:14:09;74248.69;;;-140.58;100.00
17309;BME280;8772;42.804;23.426;2023-02-04T04:16:36;74244.59;;;-140.58;100.00
17309;BME280;8772;42.804;23.426;2023-02-04T04:19:03;74250.75;;;-140.58;100.00
17309;BME280;8772;42.804;23.426;2023-02-04T04:21:30;74269.22;;;-140.58;100.00
17309;BME280;8772;42.804;23.426;2023-02-04T04:23:56;74258.94;;;-140.58;100.00
17309;BME280;8772;42.804;23.426;2023-02-04T04:26:25;74273.31;;;-140.58;100.00
17309;BME280;8772;42.804;23.426;2023-02-04T04:28:52;74269.22;;;-140.58;100.00
17309;BME280;8772;42.804;23.426;2023-02-04T04:31:18;74300.00;;;-140.58;100.00
17309;BME280;8772;42.804;23.426;2023-02-04T04:33:45;74300.00;;;-140.58;100.00
17309;BME280;8772;42.804;23.426;2023-02-04T04:36:12;74308.19;;;-140.58;100.00
17309;BME280;8772;42.804;23.426;2023-02-04T04:38:39;74310.25;;;-140.58;100.00
17309;BME280;8772;42.804;23.426;2023-02-04T04:41:06;74316.41;;;-140.58;100.00
17309;BME280;8772;42.804;23.426;2023-02-04T04:43:34;74314.34;;;-140.58;100.00
17309;BME280;8772;42.804;23.426;2023-02-04T04:46:01;74310.25;;;-140.58;100.00
17309;BME280;8772;42.804;23.426;2023-02-04T04:48:28;74314.34;;;-140.58;100.00
17309;BME280;8772;42.804;23.426;2023-02-04T04:50:55;74318.44;;;-140.58;100.00
17309;BME280;8772;42.804;23.426;2023-02-04T04:53:22;74304.09;;;-140.58;100.00
17309;BME280;8772;42.804;23.426;2023-02-04T04:55:49;74308.19;;;-140.58;100.00
17309;BME280;8772;42.804;23.426;2023-02-04T04:58:16;74297.94;;;-140.58;100.00
17309;BME280;8772;42.804;23.426;2023-02-04T05:00:44;74285.63;;;-140.58;100.00
17309;BME280;8772;42.804;23.426;2023-02-04T05:03:11;74293.84;;;-140.58;100.00
17309;BME280;8772;42.804;23.426;2023-02-04T05:05:38;74316.41;;;-140.58;100.00
17309;BME280;8772;42.804;23.426;2023-02-04T05:08:05;74318.44;;;-140.58;100.00
17309;BME280;8772;42.804;23.426;2023-02-04T05:10:35;74338.97;;;-140.58;100.00
17309;BME280;8772;42.804;23.426;2023-02-04T05:13:02;74349.22;;;-140.58;100.00
17309;BME280;8772;42.804;23.426;2023-02-04T05:15:29;74343.06;;;-140.58;100.00
17309;BME280;8772;42.804;23.426;2023-02-04T05:17:57;74351.28;;;-140.58;100.00
17309;BME280;8772;42.804;23.426;2023-02-04T05:20:24;74355.38;;;-140.58;100.00
17309;BME280;8772;42.804;23.426;2023-02-04T05:22:51;74361.53;;;-140.58;100.00
17309;BME280;8772;42.804;23.426;2023-02-04T05:25:18;74359.50;;;-140.58;100.00
17309;BME280;8772;42.804;23.426;2023-02-04T05:27:45;74361.53;;;-140.58;100.00
17309;BME280;8772;42.804;23.426;2023-02-04T05:30:13;74361.53;;;-140.58;100.00
17309;BME280;8772;42.804;23.426;2023-02-04T05:32:40;74357.44;;;-140.58;100.00
17309;BME280;8772;42.804;23.426;2023-02-04T05:35:09;74338.97;;;-140.58;100.00
17309;BME280;8772;42.804;23.426;2023-02-04T05:37:36;74343.06;;;-140.58;100.00
17309;BME280;8772;42.804;23.426;2023-02-04T05:40:03;74332.81;;;-140.58;100.00
17309;BME280;8772;42.804;23.426;2023-02-04T05:42:31;74338.97;;;-140.58;100.00
17309;BME280;8772;42.804;23.426;2023-02-04T05:44:58;74330.75;;;-140.58;100.00
17309;BME280;8772;42.804;23.426;2023-02-04T05:47:25;74334.88;;;-140.58;100.00
17309;BME280;8772;42.804;23.426;2023-02-04T05:49:51;74334.88;;;-140.58;100.00
17309;BME280;8772;42.804;23.426;2023-02-04T05:52:20;74343.06;;;-140.58;100.00
17309;BME280;8772;42.804;23.426;2023-02-04T05:54:47;74336.91;;;-140.58;100.00
17309;BME280;8772;42.804;23.426;2023-02-04T05:57:14;74338.97;;;-140.58;100.00
17309;BME280;8772;42.804;23.426;2023-02-04T05:59:40;74347.19;;;-140.58;100.00
17309;BME280;8772;42.804;23.426;2023-02-04T06:02:07;74338.97;;;-140.58;100.00
17309;BME280;8772;42.804;23.426;2023-02-04T06:04:34;74330.75;;;-140.58;100.00
17309;BME280;8772;42.804;23.426;2023-02-04T06:07:01;74322.56;;;-140.58;100.00
17309;BME280;8772;42.804;23.426;2023-02-04T06:09:30;74314.34;;;-140.58;100.00
17309;BME280;8772;42.804;23.426;2023-02-04T06:11:57;74310.25;;;-140.58;100.00
17309;BME280;8772;42.804;23.426;2023-02-04T06:14:24;74297.94;;;-140.58;100.00
17309;BME280;8772;42.804;23.426;2023-02-04T06:16:50;74302.03;;;-140.58;100.00
17309;BME280;8772;42.804;23.426;2023-02-04T06:19:17;74297.94;;;-140.58;100.00
17309;BME280;8772;42.804;23.426;2023-02-04T06:21:44;74293.84;;;-140.58;100.00
17309;BME280;8772;42.804;23.426;2023-02-04T06:24:11;74287.69;;;-140.58;100.00
17309;BME280;8772;42.804;23.426;2023-02-04T06:26:39;74293.84;;;-140.58;100.00
17309;BME280;8772;42.804;23.426;2023-02-04T06:29:06;74295.88;;;-140.58;100.00
17309;BME280;8772;42.804;23.426;2023-02-04T06:31:33;74285.63;;;-140.58;100.00
17309;BME280;8772;42.804;23.426;2023-02-04T06:34:02;74297.94;;;-140.58;100.00
17309;BME280;8772;42.804;23.426;2023-02-04T06:36:28;74293.84;;;-140.58;100.00
17309;BME280;8772;42.804;23.426;2023-02-04T06:38:55;74277.41;;;-140.58;100.00
17309;BME280;8772;42.804;23.426;2023-02-04T06:41:23;74285.63;;;-140.58;100.00
17309;BME280;8772;42.804;23.426;2023-02-04T06:43:51;74279.47;;;-140.58;100.00
17309;BME280;8772;42.804;23.426;2023-02-04T06:46:18;74263.06;;;-140.58;100.00
17309;BME280;8772;42.804;23.426;2023-02-04T06:48:45;74248.69;;;-140.58;100.00
17309;BME280;8772;42.804;23.426;2023-02-04T06:51:12;74246.66;;;-140.58;100.00
17309;BME280;8772;42.804;23.426;2023-02-04T06:53:38;74252.81;;;-140.58;100.00
17309;BME280;8772;42.804;23.426;2023-02-04T06:56:08;74261.00;;;-140.58;100.00
17309;BME280;8772;42.804;23.426;2023-02-04T06:58:35;74256.91;;;-140.58;100.00
17309;BME280;8772;42.804;23.426;2023-02-04T07:01:04;74269.22;;;-140.58;100.00
17309;BME280;8772;42.804;23.426;2023-02-04T07:03:31;74236.38;;;-140.58;100.00
17309;BME280;8772;42.804;23.426;2023-02-04T07:05:58;74234.34;;;-140.58;100.00
17309;BME280;8772;42.804;23.426;2023-02-04T07:08:25;74217.91;;;-140.58;100.00
17309;BME280;8772;42.804;23.426;2023-02-04T07:10:51;74209.72;;;-140.58;100.00
17309;BME280;8772;42.804;23.426;2023-02-04T07:13:18;74191.25;;;-140.58;100.00
17309;BME280;8772;42.804;23.426;2023-02-04T07:15:45;74181.00;;;-140.58;100.00
17309;BME280;8772;42.804;23.426;2023-02-04T07:18:13;74162.53;;;-140.58;100.00
17309;BME280;8772;42.804;23.426;2023-02-04T07:20:40;74150.22;;;-140.58;100.00
17309;BME280;8772;42.804;23.426;2023-02-04T07:23:07;74150.22;;;-140.58;100.00
17309;BME280;8772;42.804;23.426;2023-02-04T07:25:34;74137.91;;;-140.58;100.00
17309;BME280;8772;42.804;23.426;2023-02-04T07:28:01;74125.59;;;-140.58;100.00
17309;BME280;8772;42.804;23.426;2023-02-04T07:30:30;74127.66;;;-140.58;100.00
17309;BME280;8772;42.804;23.426;2023-02-04T07:32:58;74117.38;;;-140.58;100.00
17309;BME280;8772;42.804;23.426;2023-02-04T07:35:26;74109.19;;;-140.58;100.00
17309;BME280;8772;42.804;23.426;2023-02-04T07:37:54;74105.09;;;-140.58;100.00
17309;BME280;8772;42.804;23.426;2023-02-04T07:40:20;74100.97;;;-140.58;100.00
17309;BME280;8772;42.804;23.426;2023-02-04T07:42:47;74098.91;;;-140.58;100.00
17309;BME280;8772;42.804;23.426;2023-02-04T07:45:14;74076.34;;;-140.58;100.00
17309;BME280;8772;42.804;23.426;2023-02-04T07:47:42;74059.94;;;-140.58;100.00
17309;BME280;8772;42.804;23.426;2023-02-04T07:50:09;74053.78;;;-140.58;100.00
17309;BME280;8772;42.804;23.426;2023-02-04T07:52:37;74037.38;;;-140.58;99.89
17309;BME280;8772;42.804;23.426;2023-02-04T07:55:05;74037.38;;;-140.58;99.69
17309;BME280;8772;42.804;23.426;2023-02-04T07:57:32;74035.31;;;-140.58;99.54
17309;BME280;8772;42.804;23.426;2023-02-04T07:59:59;74035.31;;;-140.58;96.91
17309;BME280;8772;42.804;23.426;2023-02-04T08:02:26;74031.22;;;-140.58;94.38
17309;BME280;8772;42.804;23.426;2023-02-04T08:04:53;74018.91;;;-140.58;95.11
17309;BME280;8772;42.804;23.426;2023-02-04T08:07:20;74010.72;;;-140.58;95.26
17309;BME280;8772;42.804;23.426;2023-02-04T08:09:49;74018.91;;;-140.58;94.71
17309;BME280;8772;42.804;23.426;2023-02-04T08:12:16;74020.97;;;-140.58;94.21
17309;BME280;8772;42.804;23.426;2023-02-04T08:14:42;74023.00;;;-140.58;94.21
17309;BME280;8772;42.804;23.426;2023-02-04T08:17:09;74018.91;;;-140.58;93.73
17309;BME280;8772;42.804;23.426;2023-02-04T08:19:36;74018.91;;;-140.58;94.74
17309;BME280;8772;42.804;23.426;2023-02-04T08:22:03;74004.56;;;-140.58;95.65
17309;BME280;8772;42.804;23.426;2023-02-04T08:24:30;74000.44;;;-140.58;93.09
17309;BME280;8772;42.804;23.426;2023-02-04T08:26:58;73994.28;;;-140.58;94.72
17309;BME280;8772;42.804;23.426;2023-02-04T08:29:25;74004.56;;;-140.58;94.15
17309;BME280;8772;42.804;23.426;2023-02-04T08:31:52;74006.59;;;-140.58;92.42
17309;BME280;8772;42.804;23.426;2023-02-04T08:34:19;73986.09;;;-140.58;93.51
17309;BME280;8772;42.804;23.426;2023-02-04T08:36:46;73984.03;;;-140.58;92.50
17309;BME280;8772;42.804;23.426;2023-02-04T08:39:13;73977.88;;;-140.58;95.11
17309;BME280;8772;42.804;23.426;2023-02-04T08:41:40;73963.53;;;-140.58;93.38
17309;BME280;8772;42.804;23.426;2023-02-04T08:44:08;73953.25;;;-140.58;92.58
17309;BME280;8772;42.804;23.426;2023-02-04T08:46:35;73979.94;;;-140.58;93.87
17309;BME280;8772;42.804;23.426;2023-02-04T08:49:02;73977.88;;;-140.58;94.29
17309;BME280;8772;42.804;23.426;2023-02-04T08:51:28;73986.09;;;-140.58;95.58
17309;BME280;8772;42.804;23.426;2023-02-04T08:53:55;73992.25;;;-140.58;94.13
17309;BME280;8772;42.804;23.426;2023-02-04T08:56:22;74002.50;;;-140.58;96.83
17309;BME280;8772;42.804;23.426;2023-02-04T08:58:49;74000.44;;;-140.58;97.47
17309;BME280;8772;42.804;23.426;2023-02-04T09:01:18;74006.59;;;-140.58;98.73
17309;BME280;8772;42.804;23.426;2023-02-04T09:03:45;74027.13;;;-140.58;99.10
17309;BME280;8772;42.804;23.426;2023-02-04T09:06:12;74018.91;;;-140.58;100.00
17309;BME280;8772;42.804;23.426;2023-02-04T09:08:39;74016.84;;;-140.58;99.42
17309;BME280;8772;42.804;23.426;2023-02-04T09:11:06;74014.81;;;-140.58;100.00
17309;BME280;8772;42.804;23.426;2023-02-04T09:13:35;74020.97;;;-140.58;100.00
17309;BME280;8772;42.804;23.426;2023-02-04T09:16:02;74023.00;;;-140.58;100.00
17309;BME280;8772;42.804;23.426;2023-02-04T09:18:30;74027.13;;;-140.58;100.00
17309;BME280;8772;42.804;23.426;2023-02-04T09:20:57;74029.16;;;-140.58;100.00
17309;BME280;8772;42.804;23.426;2023-02-04T09:23:24;74039.44;;;-140.58;100.00
17309;BME280;8772;42.804;23.426;2023-02-04T09:25:51;74059.94;;;-140.58;100.00
17309;BME280;8772;42.804;23.426;2023-02-04T09:28:18;74059.94;;;-140.58;100.00
17309;BME280;8772;42.804;23.426;2023-02-04T09:30:45;74074.31;;;-140.58;100.00
17309;BME280;8772;42.804;23.426;2023-02-04T09:33:14;74072.25;;;-140.58;100.00
17309;BME280;8772;42.804;23.426;2023-02-04T09:35:43;74092.78;;;-140.58;100.00
17309;BME280;8772;42.804;23.426;2023-02-04T09:38:10;74098.91;;;-140.58;100.00
17309;BME280;8772;42.804;23.426;2023-02-04T09:40:42;74094.81;;;-140.58;100.00
17309;BME280;8772;42.804;23.426;2023-02-04T09:43:12;74109.19;;;-140.58;100.00
17309;BME280;8772;42.804;23.426;2023-02-04T09:45:40;74109.19;;;-140.58;100.00
17309;BME280;8772;42.804;23.426;2023-02-04T09:48:10;74105.09;;;-140.58;100.00
17309;BME280;8772;42.804;23.426;2023-02-04T09:50:39;74100.97;;;-140.58;100.00
17309;BME280;8772;42.804;23.426;2023-02-04T09:53:11;74096.88;;;-140.58;100.00
17309;BME280;8772;42.804;23.426;2023-02-04T09:55:39;74105.09;;;-140.58;100.00
17309;BME280;8772;42.804;23.426;2023-02-04T09:58:12;74103.03;;;-140.58;100.00
17309;BME280;8772;42.804;23.426;2023-02-04T10:00:40;74107.13;;;-140.58;100.00
17309;BME280;8772;42.804;23.426;2023-02-04T10:03:13;74092.78;;;-140.58;100.00
17309;BME280;8772;42.804;23.426;2023-02-04T10:05:41;74105.09;;;-140.58;100.00
17309;BME280;8772;42.804;23.426;2023-02-04T10:08:13;74100.97;;;-140.58;100.00
17309;BME280;8772;42.804;23.426;2023-02-04T10:10:41;74100.97;;;-140.58;100.00
17309;BME280;8772;42.804;23.426;2023-02-04T10:13:13;74088.66;;;-140.58;100.00
17309;BME280;8772;42.804;23.426;2023-02-04T10:15:42;74096.88;;;-140.58;100.00
17309;BME280;8772;42.804;23.426;2023-02-04T10:18:14;74092.78;;;-140.58;100.00
17309;BME280;8772;42.804;23.426;2023-02-04T10:20:45;74088.66;;;-140.58;100.00
17309;BME280;8772;42.804;23.426;2023-02-04T10:23:13;74105.09;;;-140.58;100.00
17309;BME280;8772;42.804;23.426;2023-02-04T10:25:40;74080.47;;;-140.58;100.00
17309;BME280;8772;42.804;23.426;2023-02-04T10:28:07;74080.47;;;-140.58;100.00
17309;BME280;8772;42.804;23.426;2023-02-04T10:30:38;74084.56;;;-140.58;100.00
17309;BME280;8772;42.804;23.426;2023-02-04T10:33:14;74066.09;;;-140.58;100.00
17309;BME280;8772;42.804;23.426;2023-02-04T10:35:45;74068.16;;;-140.58;100.00
17309;BME280;8772;42.804;23.426;2023-02-04T10:38:14;74059.94;;;-140.58;100.00
17309;BME280;8772;42.804;23.426;2023-02-04T10:40:41;74055.84;;;-140.58;100.00
17309;BME280;8772;42.804;23.426;2023-02-04T10:43:09;74055.84;;;-140.58;100.00
17309;BME280;8772;42.804;23.426;2023-02-04T10:45:36;74055.84;;;-140.58;100.00
17309;BME280;8772;42.804;23.426;2023-02-04T10:48:03;74055.84;;;-140.58;100.00
17309;BME280;8772;42.804;23.426;2023-02-04T10:50:32;74064.03;;;-140.58;100.00
17309;BME280;8772;42.804;23.426;2023-02-04T10:53:00;74055.84;;;-140.58;100.00
17309;BME280;8772;42.804;23.426;2023-02-04T10:55:42;74059.94;;;-140.58;100.00
17309;BME280;8772;42.804;23.426;2023-02-04T10:58:11;74062.00;;;-140.58;100.00
17309;BME280;8772;42.804;23.426;2023-02-04T11:00:40;74055.84;;;-140.58;100.00
17309;BME280;8772;42.804;23.426;2023-02-04T11:03:10;74059.94;;;-140.58;100.00
17309;BME280;8772;42.804;23.426;2023-02-04T11:05:41;74055.84;;;-140.58;100.00
17309;BME280;8772;42.804;23.426;2023-02-04T11:08:20;74068.16;;;-140.58;100.00
17309;BME280;8772;42.804;23.426;2023-02-04T11:10:54;74064.03;;;-140.58;100.00
17309;BME280;8772;42.804;23.426;2023-02-04T11:13:23;74053.78;;;-140.58;100.00
17309;BME280;8772;42.804;23.426;2023-02-04T11:16:07;74068.16;;;-140.58;100.00
17309;BME280;8772;42.804;23.426;2023-02-04T11:18:44;74051.75;;;-140.58;100.00
17309;BME280;8772;42.804;23.426;2023-02-04T11:21:21;74059.94;;;-140.58;100.00
17309;BME280;8772;42.804;23.426;2023-02-04T11:23:48;74068.16;;;-140.58;100.00
17309;BME280;8772;42.804;23.426;2023-02-04T11:26:18;74059.94;;;-140.58;100.00
17309;BME280;8772;42.804;23.426;2023-02-04T11:31:59;74064.03;;;-140.58;100.00
17309;BME280;8772;42.804;23.426;2023-02-04T11:34:29;74051.75;;;-140.58;100.00
17309;BME280;8772;42.804;23.426;2023-02-04T11:37:11;74055.84;;;-140.58;100.00
17309;BME280;8772;42.804;23.426;2023-02-04T11:39:41;74039.44;;;-140.58;100.00
17309;BME280;8772;42.804;23.426;2023-02-04T11:42:18;74039.44;;;-140.58;100.00
17309;BME280;8772;42.804;23.426;2023-02-04T11:44:50;74029.16;;;-140.58;100.00
17309;BME280;8772;42.804;23.426;2023-02-04T11:47:17;74023.00;;;-140.58;100.00
17309;BME280;8772;42.804;23.426;2023-02-04T11:49:52;74027.13;;;-140.58;100.00
17309;BME280;8772;42.804;23.426;2023-02-04T11:52:20;74033.28;;;-140.58;100.00
17309;BME280;8772;42.804;23.426;2023-02-04T11:54:52;74023.00;;;-140.58;100.00
17309;BME280;8772;42.804;23.426;2023-02-04T11:57:21;74031.22;;;-140.58;100.00
17309;BME280;8772;42.804;23.426;2023-02-04T11:59:48;74031.22;;;-140.58;100.00
17309;BME280;8772;42.804;23.426;2023-02-04T12:02:16;74018.91;;;-140.58;100.00
17309;BME280;8772;42.804;23.426;2023-02-04T12:04:51;74010.72;;;-140.58;100.00
17309;BME280;8772;42.804;23.426;2023-02-04T12:07:22;74018.91;;;-140.58;100.00
17309;BME280;8772;42.804;23.426;2023-02-04T12:09:50;74018.91;;;-140.58;100.00
17309;BME280;8772;42.804;23.426;2023-02-04T12:12:25;74018.91;;;-140.58;100.00
17309;BME280;8772;42.804;23.426;2023-02-04T12:14:57;74006.59;;;-140.58;100.00
17309;BME280;8772;42.804;23.426;2023-02-04T12:17:24;74010.72;;;-140.58;100.00
17309;BME280;8772;42.804;23.426;2023-02-04T12:19:51;74002.50;;;-140.58;100.00
17309;BME280;8772;42.804;23.426;2023-02-04T12:22:18;73998.41;;;-140.58;100.00
17309;BME280;8772;42.804;23.426;2023-02-04T12:24:45;73998.41;;;-140.58;100.00
17309;BME280;8772;42.804;23.426;2023-02-04T12:27:12;73998.41;;;-140.58;100.00
17309;BME280;8772;42.804;23.426;2023-02-04T12:29:40;73990.19;;;-140.58;100.00
17309;BME280;8772;42.804;23.426;2023-02-04T12:32:07;73977.88;;;-140.58;100.00
17309;BME280;8772;42.804;23.426;2023-02-04T12:34:34;73990.19;;;-140.58;100.00
17309;BME280;8772;42.804;23.426;2023-02-04T12:37:01;73986.09;;;-140.58;100.00
17309;BME280;8772;42.804;23.426;2023-02-04T12:39:27;73977.88;;;-140.58;100.00
17309;BME280;8772;42.804;23.426;2023-02-04T12:41:56;73967.63;;;-140.58;100.00
17309;BME280;8772;42.804;23.426;2023-02-04T12:44:23;73977.88;;;-140.58;100.00